sensor_id;sensor_type;location;lat;lon;timestamp;P1;durP1;ratioP1;P2;durP2;ratioP2
75550;SDS011;65071;53.082;18.218;2022-12-07T00:01:20;5.30;;;2.80;;
75550;SDS011;65071;53.082;18.218;2022-12-07T00:03:51;5.60;;;3.20;;
75550;SDS011;65071;53.082;18.218;2022-12-07T00:06:20;5.30;;;2.90;;
75550;SDS011;65071;53.082;18.218;2022-12-07T00:08:47;7.90;;;3.00;;
75550;SDS011;65071;53.082;18.218;2022-12-07T00:11:18;4.20;;;2.60;;
75550;SDS011;65071;53.082;18.218;2022-12-07T00:13:46;6.10;;;3.10;;
75550;SDS011;65071;53.082;18.218;2022-12-07T00:16:14;5.00;;;2.90;;
75550;SDS011;65071;53.082;18.218;2022-12-07T00:18:41;6.10;;;3.30;;
75550;SDS011;65071;53.082;18.218;2022-12-07T00:21:10;5.80;;;3.30;;
75550;SDS011;65071;53.082;18.218;2022-12-07T00:23:38;5.50;;;3.00;;
75550;SDS011;65071;53.082;18.218;2022-12-07T00:26:05;6.10;;;3.30;;
75550;SDS011;65071;53.082;18.218;2022-12-07T00:28:31;5.80;;;3.20;;
75550;SDS011;65071;53.082;18.218;2022-12-07T00:31:01;4.30;;;2.80;;
75550;SDS011;65071;53.082;18.218;2022-12-07T00:33:28;6.00;;;3.00;;
75550;SDS011;65071;53.082;18.218;2022-12-07T00:35:58;5.30;;;2.80;;
75550;SDS011;65071;53.082;18.218;2022-12-07T00:38:24;4.50;;;2.60;;
75550;SDS011;65071;53.082;18.218;2022-12-07T00:40:59;5.90;;;3.10;;
75550;SDS011;65071;53.082;18.218;2022-12-07T00:43:27;7.10;;;3.20;;
75550;SDS011;65071;53.082;18.218;2022-12-07T00:45:54;5.10;;;2.80;;
75550;SDS011;65071;53.082;18.218;2022-12-07T00:48:21;5.80;;;3.20;;
75550;SDS011;65071;53.082;18.218;2022-12-07T00:50:47;4.30;;;2.40;;
75550;SDS011;65071;53.082;18.218;2022-12-07T00:53:14;6.50;;;2.90;;
75550;SDS011;65071;53.082;18.218;2022-12-07T00:55:41;5.40;;;3.00;;
75550;SDS011;65071;53.082;18.218;2022-12-07T00:58:08;4.70;;;3.00;;
75550;SDS011;65071;53.082;18.218;2022-12-07T01:00:38;5.70;;;3.10;;
75550;SDS011;65071;53.082;18.218;2022-12-07T01:03:05;9.00;;;3.80;;
75550;SDS011;65071;53.082;18.218;2022-12-07T01:05:32;5.60;;;3.10;;
75550;SDS011;65071;53.082;18.218;2022-12-07T01:07:59;6.70;;;3.10;;
75550;SDS011;65071;53.082;18.218;2022-12-07T01:10:26;6.90;;;3.80;;
75550;SDS011;65071;53.082;18.218;2022-12-07T01:12:53;5.70;;;2.70;;
75550;SDS011;65071;53.082;18.218;2022-12-07T01:15:19;6.70;;;3.00;;
75550;SDS011;65071;53.082;18.218;2022-12-07T01:17:45;7.50;;;3.70;;
75550;SDS011;65071;53.082;18.218;2022-12-07T01:20:11;5.30;;;2.80;;
75550;SDS011;65071;53.082;18.218;2022-12-07T01:22:38;4.80;;;2.80;;
75550;SDS011;65071;53.082;18.218;2022-12-07T01:25:06;5.60;;;2.70;;
75550;SDS011;65071;53.082;18.218;2022-12-07T01:27:33;6.60;;;3.50;;
75550;SDS011;65071;53.082;18.218;2022-12-07T01:29:59;5.20;;;2.90;;
75550;SDS011;65071;53.082;18.218;2022-12-07T01:32:26;4.10;;;2.30;;
75550;SDS011;65071;53.082;18.218;2022-12-07T01:34:52;5.20;;;2.50;;
75550;SDS011;65071;53.082;18.218;2022-12-07T01:37:18;6.40;;;3.20;;
75550;SDS011;65071;53.082;18.218;2022-12-07T01:39:47;4.60;;;2.40;;
75550;SDS011;65071;53.082;18.218;2022-12-07T01:42:14;4.70;;;2.50;;
75550;SDS011;65071;53.082;18.218;2022-12-07T01:47:46;4.90;;;2.10;;
75550;SDS011;65071;53.082;18.218;2022-12-07T01:50:16;3.80;;;2.60;;
75550;SDS011;65071;53.082;18.218;2022-12-07T01:52:43;4.30;;;2.20;;
75550;SDS011;65071;53.082;18.218;2022-12-07T01:55:15;5.60;;;2.50;;
75550;SDS011;65071;53.082;18.218;2022-12-07T01:57:45;3.50;;;2.40;;
75550;SDS011;65071;53.082;18.218;2022-12-07T02:00:14;3.80;;;2.20;;
75550;SDS011;65071;53.082;18.218;2022-12-07T02:03:04;3.30;;;2.10;;
75550;SDS011;65071;53.082;18.218;2022-12-07T02:05:37;3.80;;;2.30;;
75550;SDS011;65071;53.082;18.218;2022-12-07T02:08:05;3.60;;;2.20;;
75550;SDS011;65071;53.082;18.218;2022-12-07T02:10:33;4.00;;;2.30;;
75550;SDS011;65071;53.082;18.218;2022-12-07T02:13:03;2.40;;;1.70;;
75550;SDS011;65071;53.082;18.218;2022-12-07T02:18:16;2.40;;;1.40;;
75550;SDS011;65071;53.082;18.218;2022-12-07T02:20:47;4.50;;;2.10;;
75550;SDS011;65071;53.082;18.218;2022-12-07T02:31:44;3.00;;;1.90;;
75550;SDS011;65071;53.082;18.218;2022-12-07T02:34:22;2.40;;;1.80;;
75550;SDS011;65071;53.082;18.218;2022-12-07T02:36:57;2.50;;;1.60;;
75550;SDS011;65071;53.082;18.218;2022-12-07T02:39:51;4.00;;;1.70;;
75550;SDS011;65071;53.082;18.218;2022-12-07T02:42:24;2.40;;;1.40;;
75550;SDS011;65071;53.082;18.218;2022-12-07T02:44:56;3.30;;;1.90;;
75550;SDS011;65071;53.082;18.218;2022-12-07T02:47:24;2.10;;;1.50;;
75550;SDS011;65071;53.082;18.218;2022-12-07T02:49:51;2.70;;;1.70;;
75550;SDS011;65071;53.082;18.218;2022-12-07T02:52:18;3.70;;;2.00;;
75550;SDS011;65071;53.082;18.218;2022-12-07T02:54:44;3.30;;;1.80;;
75550;SDS011;65071;53.082;18.218;2022-12-07T03:10:06;4.20;;;2.30;;
75550;SDS011;65071;53.082;18.218;2022-12-07T03:15:33;4.40;;;2.60;;
75550;SDS011;65071;53.082;18.218;2022-12-07T03:18:05;4.20;;;2.60;;
75550;SDS011;65071;53.082;18.218;2022-12-07T03:20:34;4.00;;;2.20;;
75550;SDS011;65071;53.082;18.218;2022-12-07T03:23:04;5.30;;;2.90;;
75550;SDS011;65071;53.082;18.218;2022-12-07T03:25:35;5.90;;;3.40;;
75550;SDS011;65071;53.082;18.218;2022-12-07T03:28:06;5.60;;;3.30;;
75550;SDS011;65071;53.082;18.218;2022-12-07T03:30:39;6.10;;;2.80;;
75550;SDS011;65071;53.082;18.218;2022-12-07T03:33:11;4.80;;;2.90;;
75550;SDS011;65071;53.082;18.218;2022-12-07T03:35:51;6.90;;;3.70;;
75550;SDS011;65071;53.082;18.218;2022-12-07T03:38:35;5.70;;;3.60;;
75550;SDS011;65071;53.082;18.218;2022-12-07T03:41:09;5.90;;;3.30;;
75550;SDS011;65071;53.082;18.218;2022-12-07T03:43:40;5.40;;;3.80;;
75550;SDS011;65071;53.082;18.218;2022-12-07T03:49:06;6.50;;;3.70;;
75550;SDS011;65071;53.082;18.218;2022-12-07T03:51:45;5.40;;;3.30;;
75550;SDS011;65071;53.082;18.218;2022-12-07T03:54:19;3.90;;;2.70;;
75550;SDS011;65071;53.082;18.218;2022-12-07T03:56:52;4.00;;;2.60;;
75550;SDS011;65071;53.082;18.218;2022-12-07T03:59:20;3.70;;;2.40;;
75550;SDS011;65071;53.082;18.218;2022-12-07T04:01:57;5.10;;;3.20;;
75550;SDS011;65071;53.082;18.218;2022-12-07T04:04:28;6.50;;;3.40;;
75550;SDS011;65071;53.082;18.218;2022-12-07T04:06:54;3.90;;;2.50;;
75550;SDS011;65071;53.082;18.218;2022-12-07T04:09:20;5.50;;;3.20;;
75550;SDS011;65071;53.082;18.218;2022-12-07T04:11:46;5.20;;;2.90;;
75550;SDS011;65071;53.082;18.218;2022-12-07T04:14:13;4.50;;;2.80;;
75550;SDS011;65071;53.082;18.218;2022-12-07T04:16:52;4.10;;;2.50;;
75550;SDS011;65071;53.082;18.218;2022-12-07T04:19:22;4.00;;;2.80;;
75550;SDS011;65071;53.082;18.218;2022-12-07T04:21:53;5.00;;;3.00;;
75550;SDS011;65071;53.082;18.218;2022-12-07T04:24:20;5.00;;;3.20;;
75550;SDS011;65071;53.082;18.218;2022-12-07T04:26:47;4.70;;;2.60;;
75550;SDS011;65071;53.082;18.218;2022-12-07T04:29:14;3.60;;;2.80;;
75550;SDS011;65071;53.082;18.218;2022-12-07T04:31:41;4.50;;;2.80;;
75550;SDS011;65071;53.082;18.218;2022-12-07T04:34:07;3.60;;;2.60;;
75550;SDS011;65071;53.082;18.218;2022-12-07T04:36:34;3.00;;;2.20;;
75550;SDS011;65071;53.082;18.218;2022-12-07T04:39:00;3.70;;;2.60;;
75550;SDS011;65071;53.082;18.218;2022-12-07T04:41:27;5.00;;;3.00;;
75550;SDS011;65071;53.082;18.218;2022-12-07T04:43:56;5.20;;;2.80;;
75550;SDS011;65071;53.082;18.218;2022-12-07T04:46:25;4.00;;;2.50;;
75550;SDS011;65071;53.082;18.218;2022-12-07T04:48:52;4.10;;;2.50;;
75550;SDS011;65071;53.082;18.218;2022-12-07T04:51:23;4.90;;;3.00;;
75550;SDS011;65071;53.082;18.218;2022-12-07T04:53:51;4.30;;;2.30;;
75550;SDS011;65071;53.082;18.218;2022-12-07T04:56:17;5.10;;;2.70;;
75550;SDS011;65071;53.082;18.218;2022-12-07T04:58:44;2.40;;;1.80;;
75550;SDS011;65071;53.082;18.218;2022-12-07T05:01:12;2.50;;;1.90;;
75550;SDS011;65071;53.082;18.218;2022-12-07T05:03:39;4.70;;;2.70;;
75550;SDS011;65071;53.082;18.218;2022-12-07T05:06:05;3.40;;;2.20;;
75550;SDS011;65071;53.082;18.218;2022-12-07T05:08:32;3.30;;;2.30;;
75550;SDS011;65071;53.082;18.218;2022-12-07T05:10:59;4.20;;;2.50;;
75550;SDS011;65071;53.082;18.218;2022-12-07T05:13:25;3.70;;;2.30;;
75550;SDS011;65071;53.082;18.218;2022-12-07T05:15:51;2.70;;;1.90;;
75550;SDS011;65071;53.082;18.218;2022-12-07T05:18:17;4.10;;;2.60;;
75550;SDS011;65071;53.082;18.218;2022-12-07T05:20:44;3.70;;;2.10;;
75550;SDS011;65071;53.082;18.218;2022-12-07T05:23:10;3.40;;;2.20;;
75550;SDS011;65071;53.082;18.218;2022-12-07T05:25:37;2.80;;;2.00;;
75550;SDS011;65071;53.082;18.218;2022-12-07T05:28:04;4.10;;;2.20;;
75550;SDS011;65071;53.082;18.218;2022-12-07T05:30:31;2.90;;;2.00;;
75550;SDS011;65071;53.082;18.218;2022-12-07T05:32:57;3.50;;;2.00;;
75550;SDS011;65071;53.082;18.218;2022-12-07T05:35:23;3.30;;;2.10;;
75550;SDS011;65071;53.082;18.218;2022-12-07T05:37:50;3.00;;;1.90;;
75550;SDS011;65071;53.082;18.218;2022-12-07T05:40:16;3.70;;;2.20;;
75550;SDS011;65071;53.082;18.218;2022-12-07T05:42:44;2.80;;;2.00;;
75550;SDS011;65071;53.082;18.218;2022-12-07T05:45:10;3.80;;;1.80;;
75550;SDS011;65071;53.082;18.218;2022-12-07T05:47:37;3.00;;;1.80;;
75550;SDS011;65071;53.082;18.218;2022-12-07T05:50:04;3.60;;;2.10;;
75550;SDS011;65071;53.082;18.218;2022-12-07T05:52:31;5.00;;;2.40;;
75550;SDS011;65071;53.082;18.218;2022-12-07T05:54:57;5.10;;;2.10;;
75550;SDS011;65071;53.082;18.218;2022-12-07T05:57:23;3.20;;;2.10;;
75550;SDS011;65071;53.082;18.218;2022-12-07T05:59:49;3.80;;;2.00;;
75550;SDS011;65071;53.082;18.218;2022-12-07T06:02:16;4.80;;;2.00;;
75550;SDS011;65071;53.082;18.218;2022-12-07T06:04:43;4.20;;;2.30;;
75550;SDS011;65071;53.082;18.218;2022-12-07T06:07:12;3.50;;;2.10;;
75550;SDS011;65071;53.082;18.218;2022-12-07T06:09:39;3.80;;;2.10;;
75550;SDS011;65071;53.082;18.218;2022-12-07T06:12:06;5.60;;;2.40;;
75550;SDS011;65071;53.082;18.218;2022-12-07T06:14:53;6.70;;;3.00;;
75550;SDS011;65071;53.082;18.218;2022-12-07T06:17:19;5.90;;;2.40;;
75550;SDS011;65071;53.082;18.218;2022-12-07T06:19:44;6.00;;;2.50;;
75550;SDS011;65071;53.082;18.218;2022-12-07T06:22:11;6.20;;;2.50;;
75550;SDS011;65071;53.082;18.218;2022-12-07T06:24:37;7.90;;;3.40;;
75550;SDS011;65071;53.082;18.218;2022-12-07T06:27:03;6.10;;;2.60;;
75550;SDS011;65071;53.082;18.218;2022-12-07T06:29:30;7.20;;;3.10;;
75550;SDS011;65071;53.082;18.218;2022-12-07T06:31:56;9.10;;;3.00;;
75550;SDS011;65071;53.082;18.218;2022-12-07T06:34:22;4.90;;;2.50;;
75550;SDS011;65071;53.082;18.218;2022-12-07T06:36:50;7.80;;;3.10;;
75550;SDS011;65071;53.082;18.218;2022-12-07T06:39:19;7.10;;;2.90;;
75550;SDS011;65071;53.082;18.218;2022-12-07T06:41:46;6.90;;;3.00;;
75550;SDS011;65071;53.082;18.218;2022-12-07T06:44:13;8.00;;;3.20;;
75550;SDS011;65071;53.082;18.218;2022-12-07T06:46:39;5.00;;;2.40;;
75550;SDS011;65071;53.082;18.218;2022-12-07T06:49:05;9.40;;;3.30;;
75550;SDS011;65071;53.082;18.218;2022-12-07T06:51:32;10.20;;;3.60;;
75550;SDS011;65071;53.082;18.218;2022-12-07T06:54:00;6.60;;;2.90;;
75550;SDS011;65071;53.082;18.218;2022-12-07T06:56:26;9.40;;;3.90;;
75550;SDS011;65071;53.082;18.218;2022-12-07T06:58:54;5.80;;;2.70;;
75550;SDS011;65071;53.082;18.218;2022-12-07T07:01:20;5.30;;;3.00;;
75550;SDS011;65071;53.082;18.218;2022-12-07T07:03:46;7.90;;;3.70;;
75550;SDS011;65071;53.082;18.218;2022-12-07T07:06:13;6.90;;;3.10;;
75550;SDS011;65071;53.082;18.218;2022-12-07T07:09:41;7.30;;;3.60;;
75550;SDS011;65071;53.082;18.218;2022-12-07T07:12:07;7.70;;;3.20;;
75550;SDS011;65071;53.082;18.218;2022-12-07T07:14:34;8.90;;;4.00;;
75550;SDS011;65071;53.082;18.218;2022-12-07T07:17:01;7.10;;;3.40;;
75550;SDS011;65071;53.082;18.218;2022-12-07T07:19:28;8.10;;;3.50;;
75550;SDS011;65071;53.082;18.218;2022-12-07T07:21:56;6.80;;;3.00;;
75550;SDS011;65071;53.082;18.218;2022-12-07T07:24:22;6.90;;;3.50;;
75550;SDS011;65071;53.082;18.218;2022-12-07T07:26:49;9.10;;;4.00;;
75550;SDS011;65071;53.082;18.218;2022-12-07T07:29:16;8.60;;;4.20;;
75550;SDS011;65071;53.082;18.218;2022-12-07T07:31:42;9.90;;;4.20;;
75550;SDS011;65071;53.082;18.218;2022-12-07T07:34:09;10.20;;;4.40;;
75550;SDS011;65071;53.082;18.218;2022-12-07T07:36:36;10.90;;;4.80;;
75550;SDS011;65071;53.082;18.218;2022-12-07T07:39:02;10.20;;;5.20;;
75550;SDS011;65071;53.082;18.218;2022-12-07T07:41:30;7.00;;;3.70;;
75550;SDS011;65071;53.082;18.218;2022-12-07T07:43:57;7.90;;;3.60;;
75550;SDS011;65071;53.082;18.218;2022-12-07T07:46:23;7.20;;;3.70;;
75550;SDS011;65071;53.082;18.218;2022-12-07T07:48:50;6.40;;;3.30;;
75550;SDS011;65071;53.082;18.218;2022-12-07T07:51:17;8.20;;;3.50;;
75550;SDS011;65071;53.082;18.218;2022-12-07T07:53:43;9.70;;;4.40;;
75550;SDS011;65071;53.082;18.218;2022-12-07T07:56:10;9.40;;;4.40;;
75550;SDS011;65071;53.082;18.218;2022-12-07T07:58:37;6.50;;;3.80;;
75550;SDS011;65071;53.082;18.218;2022-12-07T08:01:06;9.30;;;4.60;;
75550;SDS011;65071;53.082;18.218;2022-12-07T08:03:34;9.70;;;4.50;;
75550;SDS011;65071;53.082;18.218;2022-12-07T08:06:02;7.30;;;3.90;;
75550;SDS011;65071;53.082;18.218;2022-12-07T08:08:29;6.60;;;4.20;;
75550;SDS011;65071;53.082;18.218;2022-12-07T08:10:57;5.80;;;3.70;;
75550;SDS011;65071;53.082;18.218;2022-12-07T08:15:53;7.50;;;4.20;;
75550;SDS011;65071;53.082;18.218;2022-12-07T08:18:20;7.00;;;3.80;;
75550;SDS011;65071;53.082;18.218;2022-12-07T08:20:46;7.40;;;3.90;;
75550;SDS011;65071;53.082;18.218;2022-12-07T08:23:13;5.70;;;3.60;;
75550;SDS011;65071;53.082;18.218;2022-12-07T08:25:40;5.70;;;3.70;;
75550;SDS011;65071;53.082;18.218;2022-12-07T08:28:07;7.40;;;3.70;;
75550;SDS011;65071;53.082;18.218;2022-12-07T08:30:34;5.70;;;3.90;;
75550;SDS011;65071;53.082;18.218;2022-12-07T08:33:01;6.20;;;3.70;;
75550;SDS011;65071;53.082;18.218;2022-12-07T08:35:27;7.20;;;3.80;;
75550;SDS011;65071;53.082;18.218;2022-12-07T08:37:54;9.80;;;5.00;;
75550;SDS011;65071;53.082;18.218;2022-12-07T08:40:21;13.60;;;6.60;;
75550;SDS011;65071;53.082;18.218;2022-12-07T08:42:48;9.60;;;5.20;;
75550;SDS011;65071;53.082;18.218;2022-12-07T08:45:16;8.10;;;5.30;;
75550;SDS011;65071;53.082;18.218;2022-12-07T08:47:46;7.30;;;4.10;;
75550;SDS011;65071;53.082;18.218;2022-12-07T08:50:22;8.10;;;4.30;;
75550;SDS011;65071;53.082;18.218;2022-12-07T08:52:51;8.10;;;5.50;;
75550;SDS011;65071;53.082;18.218;2022-12-07T08:55:20;9.70;;;4.90;;
75550;SDS011;65071;53.082;18.218;2022-12-07T08:57:47;6.00;;;3.60;;
75550;SDS011;65071;53.082;18.218;2022-12-07T09:00:15;5.70;;;3.80;;
75550;SDS011;65071;53.082;18.218;2022-12-07T09:02:43;6.20;;;3.80;;
75550;SDS011;65071;53.082;18.218;2022-12-07T09:05:11;7.50;;;4.60;;
75550;SDS011;65071;53.082;18.218;2022-12-07T09:10:09;6.70;;;3.90;;
75550;SDS011;65071;53.082;18.218;2022-12-07T09:12:36;5.00;;;3.40;;
75550;SDS011;65071;53.082;18.218;2022-12-07T09:15:03;7.20;;;3.90;;
75550;SDS011;65071;53.082;18.218;2022-12-07T09:17:31;6.20;;;3.60;;
75550;SDS011;65071;53.082;18.218;2022-12-07T09:19:59;5.10;;;3.00;;
75550;SDS011;65071;53.082;18.218;2022-12-07T09:22:30;6.10;;;3.80;;
75550;SDS011;65071;53.082;18.218;2022-12-07T09:24:58;4.40;;;2.80;;
75550;SDS011;65071;53.082;18.218;2022-12-07T09:27:25;5.10;;;2.90;;
75550;SDS011;65071;53.082;18.218;2022-12-07T09:29:53;4.30;;;2.80;;
75550;SDS011;65071;53.082;18.218;2022-12-07T09:32:20;4.90;;;3.40;;
75550;SDS011;65071;53.082;18.218;2022-12-07T09:34:47;5.90;;;3.70;;
75550;SDS011;65071;53.082;18.218;2022-12-07T09:37:14;5.80;;;4.10;;
75550;SDS011;65071;53.082;18.218;2022-12-07T09:39:40;7.00;;;3.50;;
75550;SDS011;65071;53.082;18.218;2022-12-07T09:42:07;6.10;;;3.80;;
75550;SDS011;65071;53.082;18.218;2022-12-07T09:47:07;6.40;;;3.60;;
75550;SDS011;65071;53.082;18.218;2022-12-07T09:49:36;7.40;;;4.10;;
75550;SDS011;65071;53.082;18.218;2022-12-07T09:52:20;5.10;;;3.30;;
75550;SDS011;65071;53.082;18.218;2022-12-07T09:54:53;5.20;;;3.20;;
75550;SDS011;65071;53.082;18.218;2022-12-07T09:57:21;6.50;;;3.40;;
75550;SDS011;65071;53.082;18.218;2022-12-07T10:05:05;9.50;;;4.80;;
75550;SDS011;65071;53.082;18.218;2022-12-07T10:07:33;12.90;;;5.40;;
75550;SDS011;65071;53.082;18.218;2022-12-07T10:10:02;8.70;;;4.20;;
75550;SDS011;65071;53.082;18.218;2022-12-07T10:15:41;9.40;;;4.80;;
75550;SDS011;65071;53.082;18.218;2022-12-07T10:20:45;6.80;;;3.60;;
75550;SDS011;65071;53.082;18.218;2022-12-07T10:23:16;6.40;;;3.40;;
75550;SDS011;65071;53.082;18.218;2022-12-07T10:25:44;5.70;;;3.70;;
75550;SDS011;65071;53.082;18.218;2022-12-07T10:28:15;5.90;;;3.60;;
75550;SDS011;65071;53.082;18.218;2022-12-07T10:30:57;5.80;;;3.70;;
75550;SDS011;65071;53.082;18.218;2022-12-07T10:36:35;6.70;;;3.30;;
75550;SDS011;65071;53.082;18.218;2022-12-07T10:41:58;4.90;;;3.30;;
75550;SDS011;65071;53.082;18.218;2022-12-07T10:44:30;5.10;;;3.60;;
75550;SDS011;65071;53.082;18.218;2022-12-07T10:50:14;4.70;;;3.00;;
75550;SDS011;65071;53.082;18.218;2022-12-07T10:55:40;5.60;;;3.60;;
75550;SDS011;65071;53.082;18.218;2022-12-07T11:06:24;5.90;;;3.50;;
75550;SDS011;65071;53.082;18.218;2022-12-07T11:17:26;5.60;;;3.20;;
75550;SDS011;65071;53.082;18.218;2022-12-07T11:22:51;6.60;;;3.70;;
75550;SDS011;65071;53.082;18.218;2022-12-07T11:25:35;5.90;;;4.10;;
75550;SDS011;65071;53.082;18.218;2022-12-07T11:36:41;10.00;;;4.90;;
75550;SDS011;65071;53.082;18.218;2022-12-07T11:39:33;6.60;;;3.90;;
75550;SDS011;65071;53.082;18.218;2022-12-07T11:42:08;9.30;;;4.30;;
75550;SDS011;65071;53.082;18.218;2022-12-07T11:44:55;11.60;;;5.70;;
75550;SDS011;65071;53.082;18.218;2022-12-07T11:47:51;9.60;;;4.70;;
75550;SDS011;65071;53.082;18.218;2022-12-07T11:50:26;8.10;;;4.60;;
75550;SDS011;65071;53.082;18.218;2022-12-07T11:55:50;6.70;;;3.70;;
75550;SDS011;65071;53.082;18.218;2022-12-07T12:00:35;5.30;;;3.30;;
75550;SDS011;65071;53.082;18.218;2022-12-07T12:03:05;8.50;;;4.50;;
75550;SDS011;65071;53.082;18.218;2022-12-07T12:05:39;7.80;;;4.00;;
75550;SDS011;65071;53.082;18.218;2022-12-07T12:22:17;5.10;;;3.10;;
75550;SDS011;65071;53.082;18.218;2022-12-07T12:24:48;5.20;;;3.10;;
75550;SDS011;65071;53.082;18.218;2022-12-07T12:27:53;4.70;;;3.00;;
75550;SDS011;65071;53.082;18.218;2022-12-07T12:30:29;6.50;;;3.30;;
75550;SDS011;65071;53.082;18.218;2022-12-07T12:33:12;7.40;;;3.60;;
75550;SDS011;65071;53.082;18.218;2022-12-07T12:35:42;8.70;;;4.30;;
75550;SDS011;65071;53.082;18.218;2022-12-07T12:41:00;5.30;;;3.00;;
75550;SDS011;65071;53.082;18.218;2022-12-07T12:43:47;6.80;;;3.40;;
75550;SDS011;65071;53.082;18.218;2022-12-07T12:51:44;5.80;;;3.60;;
75550;SDS011;65071;53.082;18.218;2022-12-07T12:54:23;5.70;;;3.30;;
75550;SDS011;65071;53.082;18.218;2022-12-07T12:56:59;4.40;;;2.90;;
75550;SDS011;65071;53.082;18.218;2022-12-07T12:59:33;4.20;;;2.70;;
75550;SDS011;65071;53.082;18.218;2022-12-07T13:04:54;10.50;;;5.60;;
75550;SDS011;65071;53.082;18.218;2022-12-07T13:15:38;5.50;;;3.20;;
75550;SDS011;65071;53.082;18.218;2022-12-07T13:18:25;6.90;;;3.90;;
75550;SDS011;65071;53.082;18.218;2022-12-07T13:26:18;5.60;;;3.30;;
75550;SDS011;65071;53.082;18.218;2022-12-07T13:28:49;5.00;;;3.30;;
75550;SDS011;65071;53.082;18.218;2022-12-07T13:34:04;6.90;;;4.00;;
75550;SDS011;65071;53.082;18.218;2022-12-07T13:36:51;5.00;;;2.70;;
75550;SDS011;65071;53.082;18.218;2022-12-07T13:39:19;6.00;;;3.60;;
75550;SDS011;65071;53.082;18.218;2022-12-07T13:41:55;5.00;;;3.30;;
75550;SDS011;65071;53.082;18.218;2022-12-07T13:44:25;5.20;;;2.70;;
75550;SDS011;65071;53.082;18.218;2022-12-07T13:47:07;5.20;;;3.00;;
75550;SDS011;65071;53.082;18.218;2022-12-07T13:49:59;6.20;;;3.70;;
75550;SDS011;65071;53.082;18.218;2022-12-07T13:57:25;4.80;;;2.70;;
75550;SDS011;65071;53.082;18.218;2022-12-07T13:59:54;4.80;;;2.90;;
75550;SDS011;65071;53.082;18.218;2022-12-07T14:02:27;6.20;;;3.50;;
75550;SDS011;65071;53.082;18.218;2022-12-07T14:10:29;5.60;;;3.00;;
75550;SDS011;65071;53.082;18.218;2022-12-07T14:16:29;5.50;;;3.10;;
75550;SDS011;65071;53.082;18.218;2022-12-07T14:18:59;6.20;;;3.20;;
75550;SDS011;65071;53.082;18.218;2022-12-07T14:26:42;4.80;;;2.90;;
75550;SDS011;65071;53.082;18.218;2022-12-07T14:31:57;3.60;;;2.60;;
75550;SDS011;65071;53.082;18.218;2022-12-07T14:34:36;8.00;;;4.40;;
75550;SDS011;65071;53.082;18.218;2022-12-07T14:37:03;6.60;;;3.40;;
75550;SDS011;65071;53.082;18.218;2022-12-07T14:39:34;4.20;;;2.60;;
75550;SDS011;65071;53.082;18.218;2022-12-07T14:42:00;5.00;;;3.10;;
75550;SDS011;65071;53.082;18.218;2022-12-07T14:44:27;4.40;;;2.80;;
75550;SDS011;65071;53.082;18.218;2022-12-07T14:46:55;4.50;;;2.90;;
75550;SDS011;65071;53.082;18.218;2022-12-07T14:49:21;5.90;;;3.50;;
75550;SDS011;65071;53.082;18.218;2022-12-07T14:51:48;6.90;;;4.10;;
75550;SDS011;65071;53.082;18.218;2022-12-07T14:54:19;6.30;;;3.70;;
75550;SDS011;65071;53.082;18.218;2022-12-07T14:56:47;5.40;;;3.10;;
75550;SDS011;65071;53.082;18.218;2022-12-07T14:59:17;4.80;;;2.80;;
75550;SDS011;65071;53.082;18.218;2022-12-07T15:01:45;4.90;;;3.20;;
75550;SDS011;65071;53.082;18.218;2022-12-07T15:04:12;4.80;;;3.50;;
75550;SDS011;65071;53.082;18.218;2022-12-07T15:06:39;5.00;;;3.30;;
75550;SDS011;65071;53.082;18.218;2022-12-07T15:09:06;6.20;;;3.50;;
75550;SDS011;65071;53.082;18.218;2022-12-07T15:11:32;6.00;;;3.70;;
75550;SDS011;65071;53.082;18.218;2022-12-07T15:13:59;4.30;;;2.80;;
75550;SDS011;65071;53.082;18.218;2022-12-07T15:16:35;4.50;;;2.60;;
75550;SDS011;65071;53.082;18.218;2022-12-07T15:19:03;4.50;;;2.80;;
75550;SDS011;65071;53.082;18.218;2022-12-07T15:21:30;4.90;;;3.20;;
75550;SDS011;65071;53.082;18.218;2022-12-07T15:23:57;4.90;;;2.70;;
75550;SDS011;65071;53.082;18.218;2022-12-07T15:26:24;4.80;;;2.80;;
75550;SDS011;65071;53.082;18.218;2022-12-07T15:28:52;3.30;;;2.00;;
75550;SDS011;65071;53.082;18.218;2022-12-07T15:31:20;3.60;;;2.70;;
75550;SDS011;65071;53.082;18.218;2022-12-07T15:33:46;5.10;;;2.80;;
75550;SDS011;65071;53.082;18.218;2022-12-07T15:36:20;2.80;;;2.10;;
75550;SDS011;65071;53.082;18.218;2022-12-07T15:38:49;5.20;;;3.20;;
75550;SDS011;65071;53.082;18.218;2022-12-07T15:41:16;5.10;;;3.50;;
75550;SDS011;65071;53.082;18.218;2022-12-07T15:43:44;6.10;;;3.50;;
75550;SDS011;65071;53.082;18.218;2022-12-07T15:46:37;5.10;;;3.10;;
75550;SDS011;65071;53.082;18.218;2022-12-07T15:49:23;4.30;;;2.80;;
75550;SDS011;65071;53.082;18.218;2022-12-07T15:51:50;7.60;;;4.00;;
75550;SDS011;65071;53.082;18.218;2022-12-07T15:54:21;6.20;;;4.10;;
75550;SDS011;65071;53.082;18.218;2022-12-07T15:56:48;6.60;;;3.60;;
75550;SDS011;65071;53.082;18.218;2022-12-07T15:59:14;5.80;;;3.60;;
75550;SDS011;65071;53.082;18.218;2022-12-07T16:01:42;8.30;;;3.70;;
75550;SDS011;65071;53.082;18.218;2022-12-07T16:04:09;5.00;;;3.50;;
75550;SDS011;65071;53.082;18.218;2022-12-07T16:06:36;6.00;;;3.20;;
75550;SDS011;65071;53.082;18.218;2022-12-07T16:09:03;4.70;;;3.20;;
75550;SDS011;65071;53.082;18.218;2022-12-07T16:11:31;4.40;;;2.80;;
75550;SDS011;65071;53.082;18.218;2022-12-07T16:13:58;7.70;;;3.50;;
75550;SDS011;65071;53.082;18.218;2022-12-07T16:16:25;6.20;;;3.60;;
75550;SDS011;65071;53.082;18.218;2022-12-07T16:18:52;6.80;;;3.70;;
75550;SDS011;65071;53.082;18.218;2022-12-07T16:21:19;4.50;;;3.00;;
75550;SDS011;65071;53.082;18.218;2022-12-07T16:23:46;6.00;;;3.60;;
75550;SDS011;65071;53.082;18.218;2022-12-07T16:26:17;7.80;;;3.90;;
75550;SDS011;65071;53.082;18.218;2022-12-07T16:28:48;7.80;;;3.40;;
75550;SDS011;65071;53.082;18.218;2022-12-07T16:31:17;6.50;;;3.30;;
75550;SDS011;65071;53.082;18.218;2022-12-07T16:36:13;7.30;;;3.70;;
75550;SDS011;65071;53.082;18.218;2022-12-07T16:38:42;4.70;;;2.50;;
75550;SDS011;65071;53.082;18.218;2022-12-07T16:41:10;5.60;;;3.40;;
75550;SDS011;65071;53.082;18.218;2022-12-07T16:43:37;7.30;;;3.30;;
75550;SDS011;65071;53.082;18.218;2022-12-07T16:46:03;6.30;;;3.20;;
75550;SDS011;65071;53.082;18.218;2022-12-07T16:48:30;6.60;;;3.70;;
75550;SDS011;65071;53.082;18.218;2022-12-07T16:50:57;8.20;;;3.90;;
75550;SDS011;65071;53.082;18.218;2022-12-07T16:53:30;10.30;;;4.30;;
75550;SDS011;65071;53.082;18.218;2022-12-07T16:55:56;11.60;;;5.20;;
75550;SDS011;65071;53.082;18.218;2022-12-07T16:58:23;7.50;;;3.50;;
75550;SDS011;65071;53.082;18.218;2022-12-07T17:00:50;5.50;;;3.10;;
75550;SDS011;65071;53.082;18.218;2022-12-07T17:03:17;5.20;;;3.40;;
75550;SDS011;65071;53.082;18.218;2022-12-07T17:05:44;6.90;;;3.50;;
75550;SDS011;65071;53.082;18.218;2022-12-07T17:08:13;7.40;;;4.20;;
75550;SDS011;65071;53.082;18.218;2022-12-07T17:10:41;7.40;;;3.90;;
75550;SDS011;65071;53.082;18.218;2022-12-07T17:18:23;6.60;;;2.90;;
75550;SDS011;65071;53.082;18.218;2022-12-07T17:20:52;6.90;;;4.10;;
75550;SDS011;65071;53.082;18.218;2022-12-07T17:23:19;6.90;;;3.70;;
75550;SDS011;65071;53.082;18.218;2022-12-07T17:25:45;9.00;;;4.50;;
75550;SDS011;65071;53.082;18.218;2022-12-07T17:28:12;7.10;;;3.90;;
75550;SDS011;65071;53.082;18.218;2022-12-07T17:30:39;7.90;;;4.10;;
75550;SDS011;65071;53.082;18.218;2022-12-07T17:33:06;8.70;;;4.90;;
75550;SDS011;65071;53.082;18.218;2022-12-07T17:35:32;8.80;;;4.10;;